createdAt,value
2022-09-05T13:03:06.704Z,87.40
2022-09-05T13:04:22.809Z,88.30
2022-09-05T13:06:47.036Z,89.20
2022-09-05T13:09:17.542Z,89.40
2022-09-05T13:15:03.096Z,89.40
2022-09-05T13:15:20.063Z,89.70
2022-09-05T13:18:08.368Z,88.50
2022-09-05T13:20:39.360Z,88.40
2022-09-05T13:23:21.825Z,88.30
2022-09-05T13:26:06.879Z,88.10
2022-09-05T13:29:10.965Z,87.80
2022-09-05T13:37:58.100Z,87.30
2022-09-05T13:38:02.272Z,86.20
2022-09-05T13:38:11.403Z,87.00
2022-09-05T13:40:58.294Z,86.30
2022-09-05T13:43:31.263Z,85.30
2022-09-05T13:46:07.922Z,85.40
2022-09-05T13:51:45.391Z,84.20
2022-09-05T13:54:41.718Z,84.50
2022-09-05T13:57:21.568Z,84.60
2022-09-05T14:00:06.658Z,85.30
2022-09-05T14:06:47.311Z,84.40
2022-09-05T14:09:39.908Z,84.50
2022-09-05T14:12:37.335Z,84.00
2022-09-05T14:15:13.783Z,83.40
2022-09-05T14:18:20.211Z,82.70
2022-09-05T14:21:12.187Z,82.60
2022-09-05T14:24:04.750Z,82.90
2022-09-05T14:26:56.238Z,83.20
2022-09-05T14:29:48.375Z,83.10
2022-09-05T14:37:36.186Z,83.00
2022-09-05T14:37:44.071Z,82.90
2022-09-05T14:38:48.965Z,83.60
2022-09-05T14:41:39.859Z,82.80
2022-09-05T14:44:32.711Z,82.50
2022-09-05T14:47:09.722Z,82.50
2022-09-05T14:50:31.356Z,82.20
2022-09-05T14:56:56.432Z,81.80
2022-09-05T15:02:43.609Z,82.10
2022-09-05T15:02:47.895Z,82.00
2022-09-05T15:05:16.763Z,81.10
2022-09-05T15:08:39.559Z,81.00
2022-09-05T15:12:15.505Z,81.10
2022-09-05T15:14:03.119Z,80.60
2022-09-05T15:16:44.375Z,78.70
2022-09-05T15:19:35.410Z,80.80
2022-09-05T15:22:35.455Z,80.10
2022-09-05T15:25:21.495Z,76.70
2022-09-05T15:27:55.637Z,79.60
2022-09-05T15:30:37.266Z,77.50
2022-09-05T15:33:29.875Z,76.10
2022-09-05T15:36:09.210Z,76.60
2022-09-05T15:38:55.476Z,80.20
2022-09-05T15:41:34.739Z,79.00
2022-09-05T15:44:27.797Z,79.10
2022-09-05T15:47:09.899Z,79.10
2022-09-05T15:49:57.211Z,79.30
2022-09-05T15:52:29.508Z,80.60
2022-09-05T15:55:20.295Z,79.10
2022-09-05T15:57:55.845Z,79.10
2022-09-05T16:00:47.099Z,78.10
2022-09-05T16:06:00.847Z,76.60
2022-09-05T16:10:29.369Z,75.50
2022-09-05T16:10:47.004Z,77.70
2022-09-05T16:12:45.398Z,76.30
2022-09-05T16:21:09.591Z,74.40
2022-09-05T16:23:17.634Z,75.20
2022-09-05T16:23:29.711Z,75.40
2022-09-05T16:24:59.643Z,76.00
2022-09-05T16:28:05.763Z,75.90
2022-09-05T16:30:39.481Z,75.50
2022-09-05T16:33:16.352Z,75.50
2022-09-05T16:36:00.510Z,75.90
2022-09-05T16:38:55.714Z,75.30
2022-09-05T16:41:46.522Z,75.50
2022-09-05T16:44:34.560Z,75.50
2022-09-05T16:47:26.289Z,76.30
2022-09-05T16:50:33.610Z,76.80
2022-09-05T16:53:30.867Z,76.20
2022-09-05T16:56:19.280Z,76.30
2022-09-05T16:58:58.766Z,75.90
2022-09-05T17:02:05.677Z,75.40
2022-09-05T17:05:06.134Z,75.70
2022-09-05T17:08:07.703Z,75.60
2022-09-05T17:10:57.438Z,75.80
2022-09-05T17:13:45.019Z,75.40
2022-09-05T17:16:27.546Z,75.30
2022-09-05T17:19:02.164Z,75.00
2022-09-05T17:24:36.002Z,75.00
2022-09-05T17:29:16.125Z,76.10
2022-09-05T17:29:29.476Z,76.40
2022-09-05T17:33:43.466Z,74.60
2022-09-05T17:36:21.524Z,73.90
2022-09-05T17:39:35.937Z,74.40
2022-09-05T17:42:28.734Z,73.80
2022-09-05T17:45:06.509Z,74.00
2022-09-05T17:47:46.147Z,73.90
2022-09-05T17:50:33.047Z,74.20
2022-09-05T17:53:24.894Z,74.50
2022-09-05T17:55:52.602Z,74.90
2022-09-05T17:58:47.512Z,75.00
2022-09-05T18:01:28.871Z,74.70
2022-09-05T18:04:16.268Z,74.50
2022-09-05T18:06:59.265Z,75.10
2022-09-05T18:09:40.469Z,74.70
2022-09-05T18:13:12.452Z,75.00
2022-09-05T18:15:34.415Z,74.70
2022-09-05T18:18:05.884Z,75.10
2022-09-05T18:20:43.022Z,75.30
2022-09-05T18:26:20.979Z,75.40
2022-09-05T18:29:02.481Z,75.30
2022-09-05T18:31:41.397Z,75.30
2022-09-05T18:34:13.383Z,75.00
2022-09-05T18:36:46.002Z,75.40
2022-09-05T18:39:38.852Z,75.70
2022-09-05T18:42:26.272Z,75.80
2022-09-05T18:45:33.935Z,76.40
2022-09-05T18:48:08.603Z,76.70
2022-09-05T18:50:47.785Z,76.90
2022-09-05T18:53:25.797Z,77.10
2022-09-05T18:56:20.225Z,77.80
2022-09-05T18:58:54.295Z,78.10
2022-09-05T19:01:34.618Z,78.60
2022-09-05T19:04:05.842Z,78.80
2022-09-05T19:06:45.413Z,79.00
2022-09-05T19:09:27.493Z,79.70
2022-09-05T19:12:33.172Z,80.30
2022-09-05T19:15:01.304Z,80.70
2022-09-05T19:17:39.398Z,81.00
2022-09-05T19:20:31.647Z,81.10
2022-09-05T19:23:13.236Z,81.50
2022-09-05T19:25:46.101Z,81.60
2022-09-05T19:36:48.602Z,81.90
2022-09-05T19:36:55.835Z,82.30
2022-09-05T19:37:09.605Z,82.00
2022-09-05T19:42:04.580Z,82.40
2022-09-05T19:47:35.921Z,82.40
2022-09-05T19:47:47.966Z,82.50
2022-09-05T19:48:29.372Z,82.50
2022-09-05T19:51:29.288Z,82.30
2022-09-05T19:54:04.756Z,82.60
2022-09-05T19:56:46.430Z,82.70
2022-09-05T19:59:22.586Z,82.50
2022-09-05T20:01:53.429Z,82.10
2022-09-05T20:04:21.639Z,82.60
2022-09-05T20:07:11.516Z,82.60
2022-09-05T20:09:45.246Z,82.90
2022-09-05T20:12:24.463Z,83.10
2022-09-05T20:14:52.114Z,83.20
2022-09-05T20:17:31.433Z,83.40
2022-09-05T20:20:10.641Z,83.80
2022-09-05T20:22:49.426Z,83.80
2022-09-05T20:25:48.139Z,83.90
2022-09-05T20:28:29.738Z,83.30
2022-09-05T20:31:08.556Z,83.30
2022-09-05T20:33:52.187Z,84.30
2022-09-05T20:41:36.713Z,84.70
2022-09-05T20:43:17.033Z,84.70
2022-09-05T20:43:23.651Z,84.40
2022-09-05T20:44:52.012Z,84.60
2022-09-05T20:54:04.526Z,84.50
2022-09-05T20:54:07.707Z,84.60
2022-09-05T20:54:28.652Z,84.20
2022-09-05T20:56:22.627Z,84.40
2022-09-05T20:58:51.666Z,84.40
2022-09-05T21:01:23.588Z,84.70
2022-09-05T21:04:02.514Z,85.00
2022-09-05T21:06:39.346Z,85.30
2022-09-05T21:09:25.641Z,85.60
2022-09-05T21:11:56.017Z,85.70
2022-09-05T21:14:27.742Z,86.10
2022-09-05T21:17:13.439Z,86.30
2022-09-05T21:19:54.229Z,86.70
2022-09-05T21:22:46.810Z,87.00
2022-09-05T21:25:16.400Z,87.60
2022-09-05T21:27:59.880Z,88.20
2022-09-05T21:30:33.049Z,88.40
2022-09-05T21:33:06.346Z,88.40
2022-09-05T21:35:44.689Z,88.40
2022-09-05T21:38:32.506Z,88.40
2022-09-05T21:41:04.872Z,89.10
2022-09-05T21:47:37.975Z,89.20
2022-09-05T21:47:48.869Z,89.30
2022-09-05T21:49:09.029Z,90.20
2022-09-05T21:51:38.664Z,90.00
2022-09-05T21:57:56.633Z,90.20
2022-09-05T21:59:24.822Z,90.20
2022-09-05T21:59:52.966Z,90.10
2022-09-05T22:02:21.575Z,90.20
2022-09-05T22:04:49.671Z,90.20
2022-09-05T22:07:19.594Z,90.20
2022-09-05T22:10:01.029Z,90.10
2022-09-05T22:12:36.025Z,89.90
2022-09-05T22:15:29.205Z,89.70
2022-09-05T22:18:16.827Z,89.50
2022-09-05T22:21:29.601Z,89.70
2022-09-05T22:23:38.625Z,89.70
2022-09-05T22:26:06.830Z,89.80
2022-09-05T22:28:38.469Z,89.90
2022-09-05T22:31:07.132Z,89.80
2022-09-05T22:33:36.022Z,90.00
2022-09-05T22:36:04.242Z,90.00
2022-09-05T22:38:32.564Z,90.00
2022-09-05T22:41:00.152Z,90.00
2022-09-05T22:43:27.591Z,90.00
2022-09-05T22:45:56.250Z,90.00
2022-09-05T22:48:23.965Z,90.00
2022-09-05T22:50:52.104Z,89.90
2022-09-05T22:53:19.480Z,89.80
2022-09-05T22:55:55.936Z,89.80
2022-09-05T22:58:25.239Z,90.00
2022-09-05T23:01:00.558Z,90.10
2022-09-05T23:03:35.344Z,90.10
2022-09-05T23:06:10.383Z,90.20
2022-09-05T23:08:37.709Z,90.20
2022-09-05T23:11:13.738Z,90.10
2022-09-05T23:13:41.994Z,90.00
2022-09-05T23:16:10.239Z,90.20
2022-09-05T23:18:38.039Z,90.30
2022-09-05T23:21:08.105Z,90.30
2022-09-05T23:23:39.774Z,90.40
2022-09-05T23:26:11.661Z,90.30
2022-09-05T23:28:43.100Z,90.40
2022-09-05T23:31:12.394Z,90.40
2022-09-05T23:33:41.826Z,90.60
2022-09-05T23:36:13.656Z,90.60
2022-09-05T23:38:42.525Z,90.70
2022-09-05T23:41:12.908Z,90.70
2022-09-05T23:43:40.238Z,90.70
2022-09-05T23:46:08.051Z,90.70
2022-09-05T23:48:35.478Z,90.80
2022-09-05T23:51:11.037Z,90.70
2022-09-05T23:53:39.247Z,90.90
2022-09-05T23:56:09.495Z,91.00
2022-09-05T23:58:37.197Z,90.90
